Route Details

Aircraft Information
Group: North America Fleet
Types: B738, B752, B762, B763
Route Data
Distance: 943nm
Duration: 2h 50m
Origin METAR: CYVR 181700Z 30013KT 30SM FEW180 FEW220 FEW240 23/20 A2993 RMK AC1CC1CI1 CC TR CI TR SLP136 DENSITY ALT 900FT
Dest. METAR: KONT 181653Z 23003KT 10SM FEW130 26/14 A2994 RMK AO2 SLP122 T02610139
Freight Data
(for Aug 18, 2022)
Load Factor:
35%
Manifested Cargo: 30,976lbs
Financial History
Total Freight: 186,754lbs
Average Load: 0lbs/flt
Fuel Used: 72,418lbs
Avg. Fuel Used: 0lbs/flt
Fuel Expense: $38,382
Avg. Fuel Expense: $0
Avg. Fuel Cost: $0/lbs
Total Gross Income: $476,223
Pilot Pay: $677
Total Expenses: $95,689
Total Revenue: $339,404
Average Revenue: $0

Capitol Logistics 390




CYVR
Vancouver International Airport
Vancouver, CA
KONT
Ontario International Airport
Ontario, US

Activity Log

Date Flight Route Aircraft Duration
08/02/2022 CPX390 DCT YVR J5 EHF ZIGGY7 B752 2h 29m
07/18/2022 CPX390 YVR J5 EHF ZIGGY7 B763 2h 18m
07/14/2022 CPX390 DCT YVR J5 EHF ZIGGY7 B763 2h 45m